Terminal Aerodrome Forecast
Issued by NWS Greer, SC

Home | Current Version | Previous Version | Text Only | Print | Product List | Glossary On
Versions: 1 2 3 4 5 6 7 8 9 10 11 12 13 14 15 16 17 18 19 20 21 22 23 24 25 26 27 28
000
FTUS42 KGSP 220534
TAFAVL
TAF
KAVL 220534Z 2206/2306 16003KT 6SM BR FEW040 SCT240
     FM220800 16003KT 6SM BR SCT040 BKN250
     FM221400 17004KT P6SM SCT024 BKN230
     FM222100 17009KT P6SM BKN030 WS020/20035KT PROB30 2221/2223 2SM
      -SHRA OVC015
     FM230000 15008KT 3SM -SHRA BKN008 WS020/18035KT
     FM230500 18011G18KT 3SM -SHRA BR BKN010 WS020/20040KT=

USA.gov is the U.S. government's official web portal to all federal, state and local government web resources and services.